sensor_id;sensor_type;location;lat;lon;timestamp;pressure;altitude;pressure_sealevel;temperature;humidity
21234;BME280;10774;42.178;26.578;2023-03-21T00:00:56;100050.91;;;7.45;100.00
21234;BME280;10774;42.178;26.578;2023-03-21T00:03:22;100043.31;;;7.19;100.00
21234;BME280;10774;42.178;26.578;2023-03-21T00:05:47;100029.25;;;6.77;100.00
21234;BME280;10774;42.178;26.578;2023-03-21T00:08:16;100025.56;;;6.80;100.00
21234;BME280;10774;42.178;26.578;2023-03-21T00:10:42;100041.84;;;7.12;100.00
21234;BME280;10774;42.178;26.578;2023-03-21T00:13:07;100026.06;;;7.43;100.00
21234;BME280;10774;42.178;26.578;2023-03-21T00:15:36;100029.09;;;7.72;100.00
21234;BME280;10774;42.178;26.578;2023-03-21T00:18:17;100008.66;;;7.71;100.00
21234;BME280;10774;42.178;26.578;2023-03-21T00:20:42;100019.66;;;7.82;100.00
21234;BME280;10774;42.178;26.578;2023-03-21T00:23:13;100030.25;;;7.83;100.00
21234;BME280;10774;42.178;26.578;2023-03-21T00:25:38;100010.38;;;7.89;100.00
21234;BME280;10774;42.178;26.578;2023-03-21T00:28:04;100025.69;;;7.85;100.00
21234;BME280;10774;42.178;26.578;2023-03-21T00:30:29;100025.38;;;7.74;100.00
21234;BME280;10774;42.178;26.578;2023-03-21T00:32:55;99996.72;;;7.60;100.00
21234;BME280;10774;42.178;26.578;2023-03-21T00:35:21;100023.38;;;7.26;100.00
21234;BME280;10774;42.178;26.578;2023-03-21T00:37:46;100015.06;;;6.77;100.00
21234;BME280;10774;42.178;26.578;2023-03-21T00:40:12;100021.44;;;7.11;100.00
21234;BME280;10774;42.178;26.578;2023-03-21T00:42:38;100023.97;;;6.95;100.00
21234;BME280;10774;42.178;26.578;2023-03-21T00:45:04;100018.97;;;7.06;100.00
21234;BME280;10774;42.178;26.578;2023-03-21T00:47:30;100003.69;;;5.95;100.00
21234;BME280;10774;42.178;26.578;2023-03-21T00:49:56;100021.41;;;5.33;100.00
21234;BME280;10774;42.178;26.578;2023-03-21T00:52:25;100023.88;;;6.00;100.00
21234;BME280;10774;42.178;26.578;2023-03-21T00:54:50;100008.31;;;5.91;100.00
21234;BME280;10774;42.178;26.578;2023-03-21T00:57:16;100007.84;;;5.39;100.00
21234;BME280;10774;42.178;26.578;2023-03-21T00:59:42;100002.13;;;5.69;100.00
21234;BME280;10774;42.178;26.578;2023-03-21T01:02:08;100021.06;;;6.24;100.00
21234;BME280;10774;42.178;26.578;2023-03-21T01:04:38;100010.56;;;6.59;100.00
21234;BME280;10774;42.178;26.578;2023-03-21T01:07:04;99999.66;;;6.65;100.00
21234;BME280;10774;42.178;26.578;2023-03-21T01:09:29;99968.06;;;6.55;100.00
21234;BME280;10774;42.178;26.578;2023-03-21T01:11:54;99994.00;;;6.71;100.00
21234;BME280;10774;42.178;26.578;2023-03-21T01:14:22;99990.97;;;6.97;100.00
21234;BME280;10774;42.178;26.578;2023-03-21T01:16:48;100000.34;;;6.87;100.00
21234;BME280;10774;42.178;26.578;2023-03-21T01:19:16;99994.97;;;7.06;100.00
21234;BME280;10774;42.178;26.578;2023-03-21T01:21:42;100000.72;;;7.16;100.00
21234;BME280;10774;42.178;26.578;2023-03-21T01:24:08;100001.16;;;7.06;100.00
21234;BME280;10774;42.178;26.578;2023-03-21T01:26:34;99984.03;;;6.93;100.00
21234;BME280;10774;42.178;26.578;2023-03-21T01:29:02;99989.00;;;7.01;100.00
21234;BME280;10774;42.178;26.578;2023-03-21T01:31:27;99966.31;;;6.92;100.00
21234;BME280;10774;42.178;26.578;2023-03-21T01:33:53;99993.81;;;7.12;100.00
21234;BME280;10774;42.178;26.578;2023-03-21T01:36:23;99993.66;;;7.15;100.00
21234;BME280;10774;42.178;26.578;2023-03-21T01:38:50;99993.97;;;7.08;100.00
21234;BME280;10774;42.178;26.578;2023-03-21T01:43:52;99975.69;;;6.82;100.00
21234;BME280;10774;42.178;26.578;2023-03-21T01:51:32;99976.69;;;6.79;100.00
21234;BME280;10774;42.178;26.578;2023-03-21T01:53:59;99967.75;;;6.24;100.00
21234;BME280;10774;42.178;26.578;2023-03-21T01:56:29;99976.13;;;6.73;100.00
21234;BME280;10774;42.178;26.578;2023-03-21T01:59:02;99987.47;;;6.95;100.00
21234;BME280;10774;42.178;26.578;2023-03-21T02:01:30;99961.28;;;6.86;100.00
21234;BME280;10774;42.178;26.578;2023-03-21T02:03:56;99985.34;;;6.85;100.00
21234;BME280;10774;42.178;26.578;2023-03-21T02:06:51;99975.50;;;7.04;100.00
21234;BME280;10774;42.178;26.578;2023-03-21T02:09:22;99960.81;;;6.95;100.00
21234;BME280;10774;42.178;26.578;2023-03-21T02:11:49;99962.38;;;6.99;100.00
21234;BME280;10774;42.178;26.578;2023-03-21T02:14:17;99984.25;;;7.07;100.00
21234;BME280;10774;42.178;26.578;2023-03-21T02:24:38;99964.09;;;7.00;100.00
21234;BME280;10774;42.178;26.578;2023-03-21T02:27:17;99974.66;;;7.21;100.00
21234;BME280;10774;42.178;26.578;2023-03-21T02:37:47;99965.44;;;7.45;100.00
21234;BME280;10774;42.178;26.578;2023-03-21T02:40:23;99960.88;;;7.47;100.00
21234;BME280;10774;42.178;26.578;2023-03-21T02:43:38;99948.72;;;7.05;100.00
21234;BME280;10774;42.178;26.578;2023-03-21T02:45:44;99950.09;;;7.14;100.00
21234;BME280;10774;42.178;26.578;2023-03-21T02:48:15;99940.09;;;7.00;100.00
21234;BME280;10774;42.178;26.578;2023-03-21T02:50:47;99960.28;;;6.51;100.00
21234;BME280;10774;42.178;26.578;2023-03-21T02:53:17;99949.16;;;6.41;100.00
21234;BME280;10774;42.178;26.578;2023-03-21T02:55:45;99949.91;;;6.45;100.00
21234;BME280;10774;42.178;26.578;2023-03-21T02:58:17;99927.13;;;6.57;100.00
21234;BME280;10774;42.178;26.578;2023-03-21T03:00:44;99945.28;;;6.29;100.00
21234;BME280;10774;42.178;26.578;2023-03-21T03:03:11;99945.69;;;6.20;100.00
21234;BME280;10774;42.178;26.578;2023-03-21T03:05:42;99941.50;;;6.15;100.00
21234;BME280;10774;42.178;26.578;2023-03-21T03:08:45;99936.09;;;5.77;100.00
21234;BME280;10774;42.178;26.578;2023-03-21T03:16:25;99949.22;;;5.82;100.00
21234;BME280;10774;42.178;26.578;2023-03-21T03:18:55;99943.72;;;5.85;100.00
21234;BME280;10774;42.178;26.578;2023-03-21T03:21:38;99920.50;;;5.27;100.00
21234;BME280;10774;42.178;26.578;2023-03-21T03:24:16;99932.25;;;4.79;100.00
21234;BME280;10774;42.178;26.578;2023-03-21T03:26:55;99928.38;;;4.88;100.00
21234;BME280;10774;42.178;26.578;2023-03-21T03:29:24;99917.69;;;5.10;100.00
21234;BME280;10774;42.178;26.578;2023-03-21T03:32:00;99905.28;;;5.31;100.00
21234;BME280;10774;42.178;26.578;2023-03-21T03:34:32;99909.16;;;5.23;100.00
21234;BME280;10774;42.178;26.578;2023-03-21T03:37:05;99903.16;;;5.39;100.00
21234;BME280;10774;42.178;26.578;2023-03-21T03:39:42;99914.94;;;5.33;100.00
21234;BME280;10774;42.178;26.578;2023-03-21T03:42:18;99916.66;;;5.75;100.00
21234;BME280;10774;42.178;26.578;2023-03-21T03:44:46;99902.03;;;5.44;100.00
21234;BME280;10774;42.178;26.578;2023-03-21T03:50:00;99923.72;;;5.35;100.00
21234;BME280;10774;42.178;26.578;2023-03-21T03:52:34;99927.38;;;5.94;100.00
21234;BME280;10774;42.178;26.578;2023-03-21T03:55:01;99904.41;;;5.91;100.00
21234;BME280;10774;42.178;26.578;2023-03-21T03:57:28;99912.38;;;6.12;100.00
21234;BME280;10774;42.178;26.578;2023-03-21T03:59:54;99898.44;;;6.05;100.00
21234;BME280;10774;42.178;26.578;2023-03-21T04:02:19;99928.00;;;6.38;100.00
21234;BME280;10774;42.178;26.578;2023-03-21T04:04:46;99927.25;;;6.16;100.00
21234;BME280;10774;42.178;26.578;2023-03-21T04:07:12;99926.25;;;6.37;100.00
21234;BME280;10774;42.178;26.578;2023-03-21T04:09:38;99923.50;;;6.20;100.00
21234;BME280;10774;42.178;26.578;2023-03-21T04:12:04;99933.28;;;6.00;100.00
21234;BME280;10774;42.178;26.578;2023-03-21T04:14:29;99923.19;;;5.47;100.00
21234;BME280;10774;42.178;26.578;2023-03-21T04:16:55;99936.72;;;5.21;100.00
21234;BME280;10774;42.178;26.578;2023-03-21T04:19:20;99935.13;;;4.96;100.00
21234;BME280;10774;42.178;26.578;2023-03-21T04:21:47;99926.47;;;4.91;100.00
21234;BME280;10774;42.178;26.578;2023-03-21T04:24:12;99920.06;;;4.73;100.00
21234;BME280;10774;42.178;26.578;2023-03-21T04:26:38;99932.75;;;4.45;100.00
21234;BME280;10774;42.178;26.578;2023-03-21T04:29:04;99927.25;;;4.50;100.00
21234;BME280;10774;42.178;26.578;2023-03-21T04:31:31;99916.19;;;4.38;100.00
21234;BME280;10774;42.178;26.578;2023-03-21T04:34:02;99952.56;;;4.36;100.00
21234;BME280;10774;42.178;26.578;2023-03-21T04:36:30;99959.16;;;4.50;100.00
21234;BME280;10774;42.178;26.578;2023-03-21T04:39:03;99941.50;;;4.47;100.00
21234;BME280;10774;42.178;26.578;2023-03-21T04:41:33;99935.00;;;4.32;100.00
21234;BME280;10774;42.178;26.578;2023-03-21T04:43:58;99963.56;;;4.27;100.00
21234;BME280;10774;42.178;26.578;2023-03-21T04:46:23;99968.50;;;4.36;100.00
21234;BME280;10774;42.178;26.578;2023-03-21T04:48:49;99960.22;;;4.22;100.00
21234;BME280;10774;42.178;26.578;2023-03-21T04:51:15;99975.78;;;4.31;100.00
21234;BME280;10774;42.178;26.578;2023-03-21T04:53:40;99956.16;;;4.35;100.00
21234;BME280;10774;42.178;26.578;2023-03-21T04:56:10;99983.28;;;4.67;100.00
21234;BME280;10774;42.178;26.578;2023-03-21T04:58:36;99964.13;;;4.35;100.00
21234;BME280;10774;42.178;26.578;2023-03-21T05:01:01;99966.28;;;4.47;100.00
21234;BME280;10774;42.178;26.578;2023-03-21T05:03:30;99960.28;;;4.88;100.00
21234;BME280;10774;42.178;26.578;2023-03-21T05:06:02;99985.91;;;5.55;100.00
21234;BME280;10774;42.178;26.578;2023-03-21T05:08:27;99973.31;;;5.99;100.00
21234;BME280;10774;42.178;26.578;2023-03-21T05:10:53;99967.34;;;6.33;100.00
21234;BME280;10774;42.178;26.578;2023-03-21T05:13:18;99983.47;;;6.68;100.00
21234;BME280;10774;42.178;26.578;2023-03-21T05:15:44;99971.75;;;7.08;100.00
21234;BME280;10774;42.178;26.578;2023-03-21T05:18:09;99976.88;;;7.30;100.00
21234;BME280;10774;42.178;26.578;2023-03-21T05:20:37;99962.13;;;7.40;100.00
21234;BME280;10774;42.178;26.578;2023-03-21T05:23:07;99983.03;;;7.84;100.00
21234;BME280;10774;42.178;26.578;2023-03-21T05:25:35;99964.59;;;7.95;100.00
21234;BME280;10774;42.178;26.578;2023-03-21T05:28:03;99969.63;;;8.19;100.00
21234;BME280;10774;42.178;26.578;2023-03-21T05:30:29;99977.59;;;8.36;100.00
21234;BME280;10774;42.178;26.578;2023-03-21T05:32:54;99975.31;;;8.46;100.00
21234;BME280;10774;42.178;26.578;2023-03-21T05:35:20;99978.59;;;8.00;100.00
21234;BME280;10774;42.178;26.578;2023-03-21T05:37:45;99976.66;;;7.86;100.00
21234;BME280;10774;42.178;26.578;2023-03-21T05:40:11;99968.69;;;8.35;100.00
21234;BME280;10774;42.178;26.578;2023-03-21T05:42:36;99968.50;;;8.23;100.00
21234;BME280;10774;42.178;26.578;2023-03-21T05:45:02;99986.31;;;7.89;100.00
21234;BME280;10774;42.178;26.578;2023-03-21T05:47:28;99986.13;;;8.09;100.00
21234;BME280;10774;42.178;26.578;2023-03-21T05:49:53;99997.72;;;8.43;100.00
21234;BME280;10774;42.178;26.578;2023-03-21T05:52:19;100003.97;;;8.75;100.00
21234;BME280;10774;42.178;26.578;2023-03-21T05:54:45;99998.13;;;9.00;100.00
21234;BME280;10774;42.178;26.578;2023-03-21T05:57:11;100002.59;;;9.15;100.00
21234;BME280;10774;42.178;26.578;2023-03-21T05:59:36;100001.25;;;9.08;100.00
21234;BME280;10774;42.178;26.578;2023-03-21T06:02:02;99985.81;;;9.28;100.00
21234;BME280;10774;42.178;26.578;2023-03-21T06:04:27;99980.22;;;9.62;100.00
21234;BME280;10774;42.178;26.578;2023-03-21T06:06:53;99997.16;;;9.93;100.00
21234;BME280;10774;42.178;26.578;2023-03-21T06:09:20;99988.56;;;10.02;100.00
21234;BME280;10774;42.178;26.578;2023-03-21T06:11:47;100002.88;;;10.01;100.00
21234;BME280;10774;42.178;26.578;2023-03-21T06:14:13;99982.81;;;10.22;100.00
21234;BME280;10774;42.178;26.578;2023-03-21T06:16:39;99990.69;;;10.54;99.95
21234;BME280;10774;42.178;26.578;2023-03-21T06:19:04;99974.13;;;10.76;99.00
21234;BME280;10774;42.178;26.578;2023-03-21T06:21:30;99978.53;;;11.04;97.70
21234;BME280;10774;42.178;26.578;2023-03-21T06:23:55;99968.91;;;10.73;99.74
21234;BME280;10774;42.178;26.578;2023-03-21T06:26:21;99975.16;;;10.73;100.00
21234;BME280;10774;42.178;26.578;2023-03-21T06:28:51;99988.31;;;10.50;100.00
21234;BME280;10774;42.178;26.578;2023-03-21T06:31:18;99986.09;;;10.42;100.00
21234;BME280;10774;42.178;26.578;2023-03-21T06:33:47;100005.19;;;10.66;100.00
21234;BME280;10774;42.178;26.578;2023-03-21T06:36:12;100001.31;;;10.70;100.00
21234;BME280;10774;42.178;26.578;2023-03-21T06:38:38;100000.75;;;10.79;100.00
21234;BME280;10774;42.178;26.578;2023-03-21T06:41:04;99996.78;;;10.99;100.00
21234;BME280;10774;42.178;26.578;2023-03-21T06:43:29;100007.56;;;11.12;100.00
21234;BME280;10774;42.178;26.578;2023-03-21T06:45:58;100005.94;;;11.23;100.00
21234;BME280;10774;42.178;26.578;2023-03-21T06:48:23;100014.16;;;11.35;99.03
21234;BME280;10774;42.178;26.578;2023-03-21T06:50:50;100004.28;;;11.48;98.43
21234;BME280;10774;42.178;26.578;2023-03-21T06:53:17;99994.69;;;11.44;97.42
21234;BME280;10774;42.178;26.578;2023-03-21T06:55:48;100022.63;;;11.68;95.50
21234;BME280;10774;42.178;26.578;2023-03-21T06:58:14;100005.94;;;11.23;95.26
21234;BME280;10774;42.178;26.578;2023-03-21T07:00:39;100003.19;;;11.11;97.01
21234;BME280;10774;42.178;26.578;2023-03-21T07:03:04;100008.44;;;10.71;98.22
21234;BME280;10774;42.178;26.578;2023-03-21T07:05:30;100006.84;;;9.65;100.00
21234;BME280;10774;42.178;26.578;2023-03-21T07:07:55;99985.81;;;9.28;100.00
21234;BME280;10774;42.178;26.578;2023-03-21T07:10:21;99984.38;;;10.27;100.00
21234;BME280;10774;42.178;26.578;2023-03-21T07:12:46;99999.47;;;10.99;100.00
21234;BME280;10774;42.178;26.578;2023-03-21T07:15:11;100002.56;;;11.47;100.00
21234;BME280;10774;42.178;26.578;2023-03-21T07:17:37;100013.56;;;11.84;100.00
21234;BME280;10774;42.178;26.578;2023-03-21T07:20:02;99998.88;;;12.15;99.73
21234;BME280;10774;42.178;26.578;2023-03-21T07:22:32;99995.09;;;12.43;97.64
21234;BME280;10774;42.178;26.578;2023-03-21T07:24:58;99982.69;;;12.66;96.04
21234;BME280;10774;42.178;26.578;2023-03-21T07:27:23;99995.03;;;12.94;94.99
21234;BME280;10774;42.178;26.578;2023-03-21T07:29:48;99986.44;;;13.25;92.80
21234;BME280;10774;42.178;26.578;2023-03-21T07:32:14;99980.69;;;13.54;90.74
21234;BME280;10774;42.178;26.578;2023-03-21T07:34:40;99972.84;;;13.51;88.24
21234;BME280;10774;42.178;26.578;2023-03-21T07:37:06;99976.63;;;13.83;86.62
21234;BME280;10774;42.178;26.578;2023-03-21T07:39:32;99985.28;;;13.76;84.42
21234;BME280;10774;42.178;26.578;2023-03-21T07:41:59;99986.19;;;13.28;86.56
21234;BME280;10774;42.178;26.578;2023-03-21T07:44:25;99958.34;;;13.04;88.75
21234;BME280;10774;42.178;26.578;2023-03-21T07:46:51;99982.53;;;13.29;88.52
21234;BME280;10774;42.178;26.578;2023-03-21T07:49:16;99964.13;;;12.74;92.21
21234;BME280;10774;42.178;26.578;2023-03-21T07:51:42;99963.97;;;13.49;90.12
21234;BME280;10774;42.178;26.578;2023-03-21T07:54:07;99963.34;;;13.80;86.08
21234;BME280;10774;42.178;26.578;2023-03-21T07:56:33;99971.69;;;13.66;86.42
21234;BME280;10774;42.178;26.578;2023-03-21T07:58:58;99968.06;;;14.01;85.48
21234;BME280;10774;42.178;26.578;2023-03-21T08:01:27;99986.78;;;14.26;83.66
21234;BME280;10774;42.178;26.578;2023-03-21T08:03:52;99974.50;;;13.76;83.82
21234;BME280;10774;42.178;26.578;2023-03-21T08:06:19;99977.25;;;13.52;87.85
21234;BME280;10774;42.178;26.578;2023-03-21T08:08:45;99978.41;;;13.37;88.33
21234;BME280;10774;42.178;26.578;2023-03-21T08:11:11;99961.53;;;13.46;88.42
21234;BME280;10774;42.178;26.578;2023-03-21T08:13:37;99966.84;;;13.94;85.42
21234;BME280;10774;42.178;26.578;2023-03-21T08:16:03;99975.28;;;14.58;81.07
21234;BME280;10774;42.178;26.578;2023-03-21T08:18:29;99963.47;;;14.25;81.79
21234;BME280;10774;42.178;26.578;2023-03-21T08:20:56;99980.91;;;14.44;81.04
21234;BME280;10774;42.178;26.578;2023-03-21T08:23:22;99979.22;;;14.87;80.06
21234;BME280;10774;42.178;26.578;2023-03-21T08:25:52;99962.53;;;14.71;78.10
21234;BME280;10774;42.178;26.578;2023-03-21T08:28:19;99981.03;;;14.42;84.00
21234;BME280;10774;42.178;26.578;2023-03-21T08:30:44;99980.53;;;15.04;78.10
21234;BME280;10774;42.178;26.578;2023-03-21T08:33:09;99977.25;;;14.89;76.84
21234;BME280;10774;42.178;26.578;2023-03-21T08:35:35;99971.09;;;14.76;78.86
21234;BME280;10774;42.178;26.578;2023-03-21T08:38:02;99978.94;;;14.90;77.79
21234;BME280;10774;42.178;26.578;2023-03-21T08:40:27;99983.09;;;15.06;76.64
21234;BME280;10774;42.178;26.578;2023-03-21T08:42:53;99966.94;;;14.83;80.28
21234;BME280;10774;42.178;26.578;2023-03-21T08:45:18;99965.09;;;15.27;77.17
21234;BME280;10774;42.178;26.578;2023-03-21T08:47:45;99956.94;;;15.38;75.31
21234;BME280;10774;42.178;26.578;2023-03-21T08:50:13;99972.41;;;15.48;75.27
21234;BME280;10774;42.178;26.578;2023-03-21T08:52:39;99983.44;;;15.67;73.04
21234;BME280;10774;42.178;26.578;2023-03-21T08:55:05;99961.00;;;15.76;72.23
21234;BME280;10774;42.178;26.578;2023-03-21T08:57:31;99962.53;;;15.90;72.65
21234;BME280;10774;42.178;26.578;2023-03-21T08:59:57;99951.53;;;16.33;70.13
21234;BME280;10774;42.178;26.578;2023-03-21T09:02:22;99961.59;;;16.73;67.03
21234;BME280;10774;42.178;26.578;2023-03-21T09:04:47;99941.38;;;16.87;66.07
21234;BME280;10774;42.178;26.578;2023-03-21T09:07:13;99952.81;;;16.90;64.67
21234;BME280;10774;42.178;26.578;2023-03-21T09:09:41;99932.81;;;16.91;64.58
21234;BME280;10774;42.178;26.578;2023-03-21T09:12:06;99941.03;;;17.20;63.50
21234;BME280;10774;42.178;26.578;2023-03-21T09:14:32;99937.16;;;15.38;73.22
21234;BME280;10774;42.178;26.578;2023-03-21T09:16:59;99916.19;;;15.30;74.84
21234;BME280;10774;42.178;26.578;2023-03-21T09:19:25;99927.09;;;16.24;71.39
21234;BME280;10774;42.178;26.578;2023-03-21T09:21:52;99928.06;;;16.74;66.65
21234;BME280;10774;42.178;26.578;2023-03-21T09:24:18;99922.00;;;17.01;63.21
21234;BME280;10774;42.178;26.578;2023-03-21T09:26:44;99925.63;;;17.40;61.54
21234;BME280;10774;42.178;26.578;2023-03-21T09:29:10;99922.06;;;17.79;59.98
21234;BME280;10774;42.178;26.578;2023-03-21T09:31:36;99913.72;;;17.03;61.39
21234;BME280;10774;42.178;26.578;2023-03-21T09:34:04;99904.75;;;17.80;60.27
21234;BME280;10774;42.178;26.578;2023-03-21T09:36:30;99896.34;;;17.73;58.25
21234;BME280;10774;42.178;26.578;2023-03-21T09:38:59;99907.22;;;17.73;58.48
21234;BME280;10774;42.178;26.578;2023-03-21T09:44:44;99896.44;;;18.38;57.08
21234;BME280;10774;42.178;26.578;2023-03-21T09:47:24;99880.19;;;18.55;56.77
21234;BME280;10774;42.178;26.578;2023-03-21T09:50:15;99883.94;;;18.82;55.13
21234;BME280;10774;42.178;26.578;2023-03-21T09:55:34;99891.66;;;18.22;55.97
21234;BME280;10774;42.178;26.578;2023-03-21T10:00:38;99887.03;;;19.15;52.78
21234;BME280;10774;42.178;26.578;2023-03-21T10:03:34;99894.41;;;19.40;51.59
21234;BME280;10774;42.178;26.578;2023-03-21T10:06:03;99889.84;;;19.41;52.12
21234;BME280;10774;42.178;26.578;2023-03-21T10:08:35;99888.28;;;19.74;51.56
21234;BME280;10774;42.178;26.578;2023-03-21T10:13:51;99878.78;;;19.78;49.42
21234;BME280;10774;42.178;26.578;2023-03-21T10:16:27;99896.50;;;19.82;49.89
21234;BME280;10774;42.178;26.578;2023-03-21T10:18:54;99885.09;;;19.61;50.05
21234;BME280;10774;42.178;26.578;2023-03-21T10:21:23;99873.47;;;19.76;49.99
21234;BME280;10774;42.178;26.578;2023-03-21T10:23:50;99876.69;;;20.24;49.89
21234;BME280;10774;42.178;26.578;2023-03-21T10:26:18;99864.59;;;20.52;49.42
21234;BME280;10774;42.178;26.578;2023-03-21T10:28:44;99872.41;;;20.47;49.44
21234;BME280;10774;42.178;26.578;2023-03-21T10:31:14;99864.72;;;20.17;49.78
21234;BME280;10774;42.178;26.578;2023-03-21T10:33:43;99872.78;;;20.60;49.20
21234;BME280;10774;42.178;26.578;2023-03-21T10:36:13;99873.88;;;20.68;47.96
21234;BME280;10774;42.178;26.578;2023-03-21T10:38:54;99848.59;;;19.97;47.09
21234;BME280;10774;42.178;26.578;2023-03-21T10:41:20;99869.22;;;20.00;49.14
21234;BME280;10774;42.178;26.578;2023-03-21T10:43:45;99852.97;;;20.16;48.19
21234;BME280;10774;42.178;26.578;2023-03-21T10:46:17;99842.38;;;20.13;48.65
21234;BME280;10774;42.178;26.578;2023-03-21T10:48:51;99841.97;;;19.74;49.11
21234;BME280;10774;42.178;26.578;2023-03-21T10:51:25;99857.69;;;18.73;51.06
21234;BME280;10774;42.178;26.578;2023-03-21T10:53:54;99843.19;;;18.45;52.80
21234;BME280;10774;42.178;26.578;2023-03-21T10:56:35;99848.91;;;18.51;52.63
21234;BME280;10774;42.178;26.578;2023-03-21T10:59:02;99844.97;;;19.27;50.77
21234;BME280;10774;42.178;26.578;2023-03-21T11:01:35;99826.75;;;18.74;51.45
21234;BME280;10774;42.178;26.578;2023-03-21T11:04:28;99835.13;;;19.70;50.41
21234;BME280;10774;42.178;26.578;2023-03-21T11:07:00;99826.47;;;20.00;49.10
21234;BME280;10774;42.178;26.578;2023-03-21T11:12:17;99816.91;;;20.56;46.61
21234;BME280;10774;42.178;26.578;2023-03-21T11:14:47;99806.38;;;20.86;45.82
21234;BME280;10774;42.178;26.578;2023-03-21T11:19:59;99814.03;;;20.74;46.85
21234;BME280;10774;42.178;26.578;2023-03-21T11:22:36;99815.75;;;20.33;47.09
21234;BME280;10774;42.178;26.578;2023-03-21T11:25:04;99816.91;;;20.65;46.66
21234;BME280;10774;42.178;26.578;2023-03-21T11:27:31;99813.00;;;20.25;47.92
21234;BME280;10774;42.178;26.578;2023-03-21T11:29:59;99796.06;;;20.47;47.22
21234;BME280;10774;42.178;26.578;2023-03-21T11:32:36;99798.19;;;20.78;45.99
21234;BME280;10774;42.178;26.578;2023-03-21T11:35:15;99796.13;;;20.72;45.68
21234;BME280;10774;42.178;26.578;2023-03-21T11:37:45;99803.97;;;20.32;46.59
21234;BME280;10774;42.178;26.578;2023-03-21T11:40:25;99812.50;;;19.95;47.30
21234;BME280;10774;42.178;26.578;2023-03-21T11:42:54;99807.22;;;19.94;47.31
21234;BME280;10774;42.178;26.578;2023-03-21T11:45:28;99799.53;;;19.89;47.53
21234;BME280;10774;42.178;26.578;2023-03-21T11:47:57;99782.91;;;20.08;47.05
21234;BME280;10774;42.178;26.578;2023-03-21T11:50:44;99788.53;;;20.07;46.49
21234;BME280;10774;42.178;26.578;2023-03-21T11:53:26;99780.75;;;19.86;47.41
21234;BME280;10774;42.178;26.578;2023-03-21T12:07:19;99750.34;;;19.65;47.61
21234;BME280;10774;42.178;26.578;2023-03-21T12:10:00;99742.63;;;19.86;48.15
21234;BME280;10774;42.178;26.578;2023-03-21T12:15:43;99744.75;;;20.00;46.92
21234;BME280;10774;42.178;26.578;2023-03-21T12:18:44;99712.19;;;19.91;47.79
21234;BME280;10774;42.178;26.578;2023-03-21T12:21:19;99708.00;;;20.13;47.43
21234;BME280;10774;42.178;26.578;2023-03-21T12:32:31;99723.47;;;20.54;45.85
21234;BME280;10774;42.178;26.578;2023-03-21T12:40:14;99702.13;;;19.83;46.88
21234;BME280;10774;42.178;26.578;2023-03-21T12:43:00;99686.50;;;19.59;47.05
21234;BME280;10774;42.178;26.578;2023-03-21T12:45:34;99698.44;;;19.40;48.05
21234;BME280;10774;42.178;26.578;2023-03-21T12:50:38;99668.66;;;19.39;48.90
21234;BME280;10774;42.178;26.578;2023-03-21T12:53:58;99664.41;;;20.13;48.35
21234;BME280;10774;42.178;26.578;2023-03-21T12:56:01;99674.59;;;20.69;47.18
21234;BME280;10774;42.178;26.578;2023-03-21T12:58:30;99666.22;;;20.95;46.61
21234;BME280;10774;42.178;26.578;2023-03-21T13:00:59;99677.13;;;21.11;45.90
21234;BME280;10774;42.178;26.578;2023-03-21T13:03:35;99680.56;;;20.73;45.40
21234;BME280;10774;42.178;26.578;2023-03-21T13:06:04;99669.97;;;20.61;46.20
21234;BME280;10774;42.178;26.578;2023-03-21T13:11:17;99663.75;;;20.35;45.92
21234;BME280;10774;42.178;26.578;2023-03-21T13:16:32;99648.44;;;20.26;46.93
21234;BME280;10774;42.178;26.578;2023-03-21T13:21:47;99665.88;;;20.49;46.19
21234;BME280;10774;42.178;26.578;2023-03-21T13:29:46;99659.16;;;20.27;46.69
21234;BME280;10774;42.178;26.578;2023-03-21T13:32:24;99665.09;;;20.23;46.32
21234;BME280;10774;42.178;26.578;2023-03-21T13:34:54;99662.41;;;20.31;46.19
21234;BME280;10774;42.178;26.578;2023-03-21T13:37:21;99655.72;;;20.09;47.15
21234;BME280;10774;42.178;26.578;2023-03-21T13:39:50;99625.19;;;19.97;47.24
21234;BME280;10774;42.178;26.578;2023-03-21T13:42:21;99632.63;;;19.79;47.74
21234;BME280;10774;42.178;26.578;2023-03-21T13:44:52;99638.69;;;19.65;48.15
21234;BME280;10774;42.178;26.578;2023-03-21T13:47:36;99650.63;;;19.72;47.94
21234;BME280;10774;42.178;26.578;2023-03-21T13:50:23;99645.19;;;19.72;48.16
21234;BME280;10774;42.178;26.578;2023-03-21T13:53:09;99646.19;;;19.63;48.78
21234;BME280;10774;42.178;26.578;2023-03-21T13:55:39;99652.00;;;19.68;48.86
21234;BME280;10774;42.178;26.578;2023-03-21T14:01:26;99641.16;;;19.84;48.61
21234;BME280;10774;42.178;26.578;2023-03-21T14:04:06;99644.41;;;19.88;49.28
21234;BME280;10774;42.178;26.578;2023-03-21T14:06:38;99635.81;;;19.66;49.67
21234;BME280;10774;42.178;26.578;2023-03-21T14:09:07;99632.81;;;19.77;49.50
21234;BME280;10774;42.178;26.578;2023-03-21T14:11:33;99617.28;;;19.70;49.98
21234;BME280;10774;42.178;26.578;2023-03-21T14:14:01;99619.31;;;19.68;53.37
21234;BME280;10774;42.178;26.578;2023-03-21T14:16:28;99610.47;;;19.40;60.45
21234;BME280;10774;42.178;26.578;2023-03-21T14:19:00;99609.03;;;19.53;62.01
21234;BME280;10774;42.178;26.578;2023-03-21T14:21:31;99609.19;;;19.52;61.78
21234;BME280;10774;42.178;26.578;2023-03-21T14:24:11;99601.38;;;19.23;62.77
21234;BME280;10774;42.178;26.578;2023-03-21T14:26:42;99616.84;;;19.14;64.05
21234;BME280;10774;42.178;26.578;2023-03-21T14:29:17;99630.31;;;18.98;64.63
21234;BME280;10774;42.178;26.578;2023-03-21T14:31:44;99623.63;;;18.92;65.11
21234;BME280;10774;42.178;26.578;2023-03-21T14:34:12;99608.69;;;18.70;65.10